sensor_id;sensor_type;location;lat;lon;timestamp;P1;durP1;ratioP1;P2;durP2;ratioP2
21356;SDS011;10836;53.068;18.234;2023-03-01T00:01:21;41.43;;;15.43;;
21356;SDS011;10836;53.068;18.234;2023-03-01T00:03:50;37.30;;;15.73;;
21356;SDS011;10836;53.068;18.234;2023-03-01T00:06:18;39.90;;;15.47;;
21356;SDS011;10836;53.068;18.234;2023-03-01T00:08:46;42.47;;;17.13;;
21356;SDS011;10836;53.068;18.234;2023-03-01T00:11:14;40.70;;;16.40;;
21356;SDS011;10836;53.068;18.234;2023-03-01T00:13:44;44.20;;;17.87;;
21356;SDS011;10836;53.068;18.234;2023-03-01T00:16:12;41.90;;;17.20;;
21356;SDS011;10836;53.068;18.234;2023-03-01T00:18:42;42.93;;;16.23;;
21356;SDS011;10836;53.068;18.234;2023-03-01T00:21:09;38.30;;;16.63;;
21356;SDS011;10836;53.068;18.234;2023-03-01T00:23:37;43.03;;;17.13;;
21356;SDS011;10836;53.068;18.234;2023-03-01T00:26:08;45.10;;;18.63;;
21356;SDS011;10836;53.068;18.234;2023-03-01T00:28:40;46.37;;;18.97;;
21356;SDS011;10836;53.068;18.234;2023-03-01T00:31:08;46.43;;;18.03;;
21356;SDS011;10836;53.068;18.234;2023-03-01T00:33:39;39.80;;;17.10;;
21356;SDS011;10836;53.068;18.234;2023-03-01T00:36:06;54.97;;;19.73;;
21356;SDS011;10836;53.068;18.234;2023-03-01T00:38:35;51.20;;;20.60;;
21356;SDS011;10836;53.068;18.234;2023-03-01T00:41:04;48.07;;;19.20;;
21356;SDS011;10836;53.068;18.234;2023-03-01T00:43:32;49.57;;;19.47;;
21356;SDS011;10836;53.068;18.234;2023-03-01T00:46:04;42.70;;;19.33;;
21356;SDS011;10836;53.068;18.234;2023-03-01T00:48:35;46.17;;;19.63;;
21356;SDS011;10836;53.068;18.234;2023-03-01T00:51:10;46.07;;;20.17;;
21356;SDS011;10836;53.068;18.234;2023-03-01T00:53:39;53.73;;;20.80;;
21356;SDS011;10836;53.068;18.234;2023-03-01T00:56:07;49.70;;;18.60;;
21356;SDS011;10836;53.068;18.234;2023-03-01T00:58:35;46.37;;;18.57;;
21356;SDS011;10836;53.068;18.234;2023-03-01T01:01:09;52.33;;;20.13;;
21356;SDS011;10836;53.068;18.234;2023-03-01T01:03:48;53.90;;;22.30;;
21356;SDS011;10836;53.068;18.234;2023-03-01T01:06:16;43.37;;;19.63;;
21356;SDS011;10836;53.068;18.234;2023-03-01T01:08:48;50.37;;;20.47;;
21356;SDS011;10836;53.068;18.234;2023-03-01T01:11:16;48.50;;;19.13;;
21356;SDS011;10836;53.068;18.234;2023-03-01T01:13:45;57.03;;;21.47;;
21356;SDS011;10836;53.068;18.234;2023-03-01T01:16:13;45.50;;;19.13;;
21356;SDS011;10836;53.068;18.234;2023-03-01T01:18:41;53.43;;;21.17;;
21356;SDS011;10836;53.068;18.234;2023-03-01T01:21:09;51.60;;;19.47;;
21356;SDS011;10836;53.068;18.234;2023-03-01T01:23:38;57.30;;;22.13;;
21356;SDS011;10836;53.068;18.234;2023-03-01T01:26:10;56.13;;;19.47;;
21356;SDS011;10836;53.068;18.234;2023-03-01T01:28:40;51.50;;;21.13;;
21356;SDS011;10836;53.068;18.234;2023-03-01T01:31:07;53.33;;;19.93;;
21356;SDS011;10836;53.068;18.234;2023-03-01T01:33:34;54.30;;;21.70;;
21356;SDS011;10836;53.068;18.234;2023-03-01T01:36:01;53.33;;;21.00;;
21356;SDS011;10836;53.068;18.234;2023-03-01T01:38:29;50.73;;;21.07;;
21356;SDS011;10836;53.068;18.234;2023-03-01T01:40:55;51.30;;;21.17;;
21356;SDS011;10836;53.068;18.234;2023-03-01T01:43:27;49.33;;;20.17;;
21356;SDS011;10836;53.068;18.234;2023-03-01T01:46:04;45.30;;;19.50;;
21356;SDS011;10836;53.068;18.234;2023-03-01T01:48:43;53.70;;;20.70;;
21356;SDS011;10836;53.068;18.234;2023-03-01T01:51:23;49.97;;;20.27;;
21356;SDS011;10836;53.068;18.234;2023-03-01T01:53:55;50.30;;;19.37;;
21356;SDS011;10836;53.068;18.234;2023-03-01T01:56:26;51.70;;;20.20;;
21356;SDS011;10836;53.068;18.234;2023-03-01T01:58:56;50.50;;;21.60;;
21356;SDS011;10836;53.068;18.234;2023-03-01T02:01:23;51.33;;;20.47;;
21356;SDS011;10836;53.068;18.234;2023-03-01T02:03:51;62.13;;;23.10;;
21356;SDS011;10836;53.068;18.234;2023-03-01T02:06:22;75.10;;;27.53;;
21356;SDS011;10836;53.068;18.234;2023-03-01T02:09:00;77.27;;;26.43;;
21356;SDS011;10836;53.068;18.234;2023-03-01T02:11:31;71.10;;;24.70;;
21356;SDS011;10836;53.068;18.234;2023-03-01T02:13:59;57.90;;;22.33;;
21356;SDS011;10836;53.068;18.234;2023-03-01T02:16:26;54.63;;;20.53;;
21356;SDS011;10836;53.068;18.234;2023-03-01T02:18:54;51.83;;;19.87;;
21356;SDS011;10836;53.068;18.234;2023-03-01T02:24:23;49.37;;;20.53;;
21356;SDS011;10836;53.068;18.234;2023-03-01T02:27:03;48.60;;;19.93;;
21356;SDS011;10836;53.068;18.234;2023-03-01T02:29:31;52.27;;;19.90;;
21356;SDS011;10836;53.068;18.234;2023-03-01T02:31:58;48.87;;;20.63;;
21356;SDS011;10836;53.068;18.234;2023-03-01T02:34:29;47.97;;;20.93;;
21356;SDS011;10836;53.068;18.234;2023-03-01T02:37:01;49.27;;;19.83;;
21356;SDS011;10836;53.068;18.234;2023-03-01T02:39:32;54.17;;;21.57;;
21356;SDS011;10836;53.068;18.234;2023-03-01T02:42:13;48.37;;;19.57;;
21356;SDS011;10836;53.068;18.234;2023-03-01T02:44:43;49.13;;;20.90;;
21356;SDS011;10836;53.068;18.234;2023-03-01T02:47:11;51.13;;;18.33;;
21356;SDS011;10836;53.068;18.234;2023-03-01T02:49:38;53.87;;;21.30;;
21356;SDS011;10836;53.068;18.234;2023-03-01T02:52:11;45.47;;;19.80;;
21356;SDS011;10836;53.068;18.234;2023-03-01T02:55:02;47.43;;;19.43;;
21356;SDS011;10836;53.068;18.234;2023-03-01T02:57:31;49.47;;;18.00;;
21356;SDS011;10836;53.068;18.234;2023-03-01T03:00:05;49.53;;;19.73;;
21356;SDS011;10836;53.068;18.234;2023-03-01T03:02:36;51.23;;;20.53;;
21356;SDS011;10836;53.068;18.234;2023-03-01T03:05:18;49.73;;;20.53;;
21356;SDS011;10836;53.068;18.234;2023-03-01T03:07:49;53.73;;;20.80;;
21356;SDS011;10836;53.068;18.234;2023-03-01T03:10:21;49.47;;;21.37;;
21356;SDS011;10836;53.068;18.234;2023-03-01T03:13:03;52.73;;;20.93;;
21356;SDS011;10836;53.068;18.234;2023-03-01T03:15:32;48.93;;;20.50;;
21356;SDS011;10836;53.068;18.234;2023-03-01T03:18:03;54.10;;;19.60;;
21356;SDS011;10836;53.068;18.234;2023-03-01T03:20:32;49.03;;;20.10;;
21356;SDS011;10836;53.068;18.234;2023-03-01T03:22:59;49.17;;;19.37;;
21356;SDS011;10836;53.068;18.234;2023-03-01T03:25:27;46.13;;;18.47;;
21356;SDS011;10836;53.068;18.234;2023-03-01T03:27:55;49.50;;;18.87;;
21356;SDS011;10836;53.068;18.234;2023-03-01T03:30:27;45.43;;;19.37;;
21356;SDS011;10836;53.068;18.234;2023-03-01T03:32:56;48.70;;;18.93;;
21356;SDS011;10836;53.068;18.234;2023-03-01T03:37:54;46.73;;;18.60;;
21356;SDS011;10836;53.068;18.234;2023-03-01T03:40:37;51.00;;;19.40;;
21356;SDS011;10836;53.068;18.234;2023-03-01T03:43:13;37.67;;;15.90;;
21356;SDS011;10836;53.068;18.234;2023-03-01T03:45:45;40.60;;;17.20;;
21356;SDS011;10836;53.068;18.234;2023-03-01T03:48:13;43.73;;;17.67;;
21356;SDS011;10836;53.068;18.234;2023-03-01T03:50:41;40.17;;;17.03;;
21356;SDS011;10836;53.068;18.234;2023-03-01T03:53:10;36.87;;;16.40;;
21356;SDS011;10836;53.068;18.234;2023-03-01T03:55:38;44.27;;;17.57;;
21356;SDS011;10836;53.068;18.234;2023-03-01T03:58:07;37.13;;;15.83;;
21356;SDS011;10836;53.068;18.234;2023-03-01T04:00:38;40.33;;;16.43;;
21356;SDS011;10836;53.068;18.234;2023-03-01T04:03:10;34.70;;;15.73;;
21356;SDS011;10836;53.068;18.234;2023-03-01T04:05:40;40.10;;;16.90;;
21356;SDS011;10836;53.068;18.234;2023-03-01T04:08:08;40.40;;;16.33;;
21356;SDS011;10836;53.068;18.234;2023-03-01T04:13:11;41.53;;;16.87;;
21356;SDS011;10836;53.068;18.234;2023-03-01T04:15:39;40.07;;;15.53;;
21356;SDS011;10836;53.068;18.234;2023-03-01T04:18:06;42.43;;;16.67;;
21356;SDS011;10836;53.068;18.234;2023-03-01T04:20:34;39.17;;;15.67;;
21356;SDS011;10836;53.068;18.234;2023-03-01T04:23:09;45.77;;;18.20;;
21356;SDS011;10836;53.068;18.234;2023-03-01T04:25:41;42.27;;;17.87;;
21356;SDS011;10836;53.068;18.234;2023-03-01T04:28:22;45.50;;;17.33;;
21356;SDS011;10836;53.068;18.234;2023-03-01T04:30:52;42.33;;;17.43;;
21356;SDS011;10836;53.068;18.234;2023-03-01T04:33:20;39.60;;;17.03;;
21356;SDS011;10836;53.068;18.234;2023-03-01T04:35:48;44.23;;;17.27;;
21356;SDS011;10836;53.068;18.234;2023-03-01T04:38:16;44.70;;;17.60;;
21356;SDS011;10836;53.068;18.234;2023-03-01T04:40:44;46.07;;;18.73;;
21356;SDS011;10836;53.068;18.234;2023-03-01T04:43:12;43.73;;;17.97;;
21356;SDS011;10836;53.068;18.234;2023-03-01T04:45:42;43.03;;;17.27;;
21356;SDS011;10836;53.068;18.234;2023-03-01T04:48:09;40.83;;;18.03;;
21356;SDS011;10836;53.068;18.234;2023-03-01T04:50:36;41.93;;;17.40;;
21356;SDS011;10836;53.068;18.234;2023-03-01T04:53:03;48.07;;;15.90;;
21356;SDS011;10836;53.068;18.234;2023-03-01T04:55:30;39.83;;;17.70;;
21356;SDS011;10836;53.068;18.234;2023-03-01T04:57:58;41.87;;;17.37;;
21356;SDS011;10836;53.068;18.234;2023-03-01T05:00:25;47.50;;;17.80;;
21356;SDS011;10836;53.068;18.234;2023-03-01T05:02:53;41.20;;;17.30;;
21356;SDS011;10836;53.068;18.234;2023-03-01T05:07:59;42.57;;;16.20;;
21356;SDS011;10836;53.068;18.234;2023-03-01T05:10:28;36.20;;;15.87;;
21356;SDS011;10836;53.068;18.234;2023-03-01T05:12:57;43.87;;;18.00;;
21356;SDS011;10836;53.068;18.234;2023-03-01T05:15:25;41.73;;;16.60;;
21356;SDS011;10836;53.068;18.234;2023-03-01T05:17:54;35.63;;;16.53;;
21356;SDS011;10836;53.068;18.234;2023-03-01T05:20:26;44.57;;;18.03;;
21356;SDS011;10836;53.068;18.234;2023-03-01T05:22:56;50.17;;;19.33;;
21356;SDS011;10836;53.068;18.234;2023-03-01T05:25:25;50.77;;;17.77;;
21356;SDS011;10836;53.068;18.234;2023-03-01T05:27:53;46.97;;;18.83;;
21356;SDS011;10836;53.068;18.234;2023-03-01T05:30:20;42.57;;;18.53;;
21356;SDS011;10836;53.068;18.234;2023-03-01T05:32:49;45.53;;;18.03;;
21356;SDS011;10836;53.068;18.234;2023-03-01T05:35:22;48.10;;;18.43;;
21356;SDS011;10836;53.068;18.234;2023-03-01T05:37:50;47.47;;;18.73;;
21356;SDS011;10836;53.068;18.234;2023-03-01T05:40:20;42.57;;;19.00;;
21356;SDS011;10836;53.068;18.234;2023-03-01T05:42:49;42.47;;;16.87;;
21356;SDS011;10836;53.068;18.234;2023-03-01T05:45:20;44.80;;;17.23;;
21356;SDS011;10836;53.068;18.234;2023-03-01T05:47:49;40.97;;;18.00;;
21356;SDS011;10836;53.068;18.234;2023-03-01T05:50:28;43.90;;;17.57;;
21356;SDS011;10836;53.068;18.234;2023-03-01T05:52:58;40.23;;;17.03;;
21356;SDS011;10836;53.068;18.234;2023-03-01T05:55:25;49.13;;;17.87;;
21356;SDS011;10836;53.068;18.234;2023-03-01T05:57:54;37.63;;;17.33;;
21356;SDS011;10836;53.068;18.234;2023-03-01T06:00:22;40.40;;;17.23;;
21356;SDS011;10836;53.068;18.234;2023-03-01T06:02:49;39.57;;;15.83;;
21356;SDS011;10836;53.068;18.234;2023-03-01T06:05:16;36.03;;;15.80;;
21356;SDS011;10836;53.068;18.234;2023-03-01T06:07:43;36.77;;;15.80;;
21356;SDS011;10836;53.068;18.234;2023-03-01T06:10:11;42.30;;;16.53;;
21356;SDS011;10836;53.068;18.234;2023-03-01T06:12:40;38.93;;;15.50;;
21356;SDS011;10836;53.068;18.234;2023-03-01T06:15:08;35.70;;;15.20;;
21356;SDS011;10836;53.068;18.234;2023-03-01T06:17:37;36.13;;;15.13;;
21356;SDS011;10836;53.068;18.234;2023-03-01T06:20:08;36.73;;;15.53;;
21356;SDS011;10836;53.068;18.234;2023-03-01T06:22:38;32.63;;;15.43;;
21356;SDS011;10836;53.068;18.234;2023-03-01T06:25:06;36.83;;;15.77;;
21356;SDS011;10836;53.068;18.234;2023-03-01T06:27:33;35.57;;;14.97;;
21356;SDS011;10836;53.068;18.234;2023-03-01T06:30:01;39.13;;;15.40;;
21356;SDS011;10836;53.068;18.234;2023-03-01T06:32:28;38.23;;;15.80;;
21356;SDS011;10836;53.068;18.234;2023-03-01T06:34:56;33.50;;;14.57;;
21356;SDS011;10836;53.068;18.234;2023-03-01T06:37:25;31.70;;;14.30;;
21356;SDS011;10836;53.068;18.234;2023-03-01T06:39:52;37.37;;;16.17;;
21356;SDS011;10836;53.068;18.234;2023-03-01T06:42:19;36.43;;;14.73;;
21356;SDS011;10836;53.068;18.234;2023-03-01T06:44:46;38.90;;;16.80;;
21356;SDS011;10836;53.068;18.234;2023-03-01T06:47:13;36.83;;;15.50;;
21356;SDS011;10836;53.068;18.234;2023-03-01T06:49:41;38.57;;;15.77;;
21356;SDS011;10836;53.068;18.234;2023-03-01T06:52:07;34.60;;;15.53;;
21356;SDS011;10836;53.068;18.234;2023-03-01T06:54:34;43.67;;;17.40;;
21356;SDS011;10836;53.068;18.234;2023-03-01T06:57:01;41.37;;;18.73;;
21356;SDS011;10836;53.068;18.234;2023-03-01T06:59:28;66.50;;;26.40;;
21356;SDS011;10836;53.068;18.234;2023-03-01T07:01:55;75.53;;;29.57;;
21356;SDS011;10836;53.068;18.234;2023-03-01T07:04:22;66.97;;;27.83;;
21356;SDS011;10836;53.068;18.234;2023-03-01T07:06:49;58.30;;;23.87;;
21356;SDS011;10836;53.068;18.234;2023-03-01T07:09:22;45.70;;;19.33;;
21356;SDS011;10836;53.068;18.234;2023-03-01T07:11:49;42.17;;;17.20;;
21356;SDS011;10836;53.068;18.234;2023-03-01T07:14:17;33.27;;;15.47;;
21356;SDS011;10836;53.068;18.234;2023-03-01T07:16:43;36.03;;;15.93;;
21356;SDS011;10836;53.068;18.234;2023-03-01T07:19:10;33.20;;;15.80;;
21356;SDS011;10836;53.068;18.234;2023-03-01T07:21:37;37.37;;;15.10;;
21356;SDS011;10836;53.068;18.234;2023-03-01T07:24:07;35.03;;;15.33;;
21356;SDS011;10836;53.068;18.234;2023-03-01T07:26:35;31.43;;;13.77;;
21356;SDS011;10836;53.068;18.234;2023-03-01T07:29:03;36.37;;;14.83;;
21356;SDS011;10836;53.068;18.234;2023-03-01T07:31:31;32.43;;;14.93;;
21356;SDS011;10836;53.068;18.234;2023-03-01T07:33:58;34.10;;;14.63;;
21356;SDS011;10836;53.068;18.234;2023-03-01T07:36:25;31.63;;;14.50;;
21356;SDS011;10836;53.068;18.234;2023-03-01T07:38:53;33.80;;;14.87;;
21356;SDS011;10836;53.068;18.234;2023-03-01T07:41:22;31.27;;;14.27;;
21356;SDS011;10836;53.068;18.234;2023-03-01T07:43:49;33.70;;;14.80;;
21356;SDS011;10836;53.068;18.234;2023-03-01T07:46:15;29.30;;;14.03;;
21356;SDS011;10836;53.068;18.234;2023-03-01T07:48:45;29.67;;;14.27;;
21356;SDS011;10836;53.068;18.234;2023-03-01T07:51:12;30.80;;;13.30;;
21356;SDS011;10836;53.068;18.234;2023-03-01T07:53:40;30.00;;;14.30;;
21356;SDS011;10836;53.068;18.234;2023-03-01T07:56:10;32.97;;;15.65;;
21356;SDS011;10836;53.068;18.234;2023-03-01T07:58:42;33.30;;;16.03;;
21356;SDS011;10836;53.068;18.234;2023-03-01T08:01:11;32.70;;;15.77;;
21356;SDS011;10836;53.068;18.234;2023-03-01T08:03:40;33.47;;;15.77;;
21356;SDS011;10836;53.068;18.234;2023-03-01T08:06:09;29.30;;;14.10;;
21356;SDS011;10836;53.068;18.234;2023-03-01T08:08:37;29.45;;;14.55;;
21356;SDS011;10836;53.068;18.234;2023-03-01T08:11:05;31.03;;;14.03;;
21356;SDS011;10836;53.068;18.234;2023-03-01T08:13:33;33.93;;;13.67;;
21356;SDS011;10836;53.068;18.234;2023-03-01T08:16:04;31.92;;;14.23;;
21356;SDS011;10836;53.068;18.234;2023-03-01T08:18:33;29.92;;;13.68;;
21356;SDS011;10836;53.068;18.234;2023-03-01T08:21:11;27.42;;;14.30;;
21356;SDS011;10836;53.068;18.234;2023-03-01T08:23:40;30.67;;;14.50;;
21356;SDS011;10836;53.068;18.234;2023-03-01T08:26:09;33.40;;;15.17;;
21356;SDS011;10836;53.068;18.234;2023-03-01T08:28:39;37.73;;;17.13;;
21356;SDS011;10836;53.068;18.234;2023-03-01T08:31:16;34.78;;;16.30;;
21356;SDS011;10836;53.068;18.234;2023-03-01T08:33:44;29.50;;;14.35;;
21356;SDS011;10836;53.068;18.234;2023-03-01T08:36:17;32.60;;;14.98;;
21356;SDS011;10836;53.068;18.234;2023-03-01T08:38:44;29.08;;;13.07;;
21356;SDS011;10836;53.068;18.234;2023-03-01T08:41:12;28.52;;;13.18;;
21356;SDS011;10836;53.068;18.234;2023-03-01T08:43:39;29.17;;;14.30;;
21356;SDS011;10836;53.068;18.234;2023-03-01T08:46:07;26.13;;;12.95;;
21356;SDS011;10836;53.068;18.234;2023-03-01T08:48:34;30.45;;;15.45;;
21356;SDS011;10836;53.068;18.234;2023-03-01T08:51:08;29.95;;;14.63;;
21356;SDS011;10836;53.068;18.234;2023-03-01T08:53:37;32.90;;;15.32;;
21356;SDS011;10836;53.068;18.234;2023-03-01T08:56:04;33.47;;;15.18;;
21356;SDS011;10836;53.068;18.234;2023-03-01T08:58:31;32.45;;;15.15;;
21356;SDS011;10836;53.068;18.234;2023-03-01T09:00:58;31.60;;;14.73;;
21356;SDS011;10836;53.068;18.234;2023-03-01T09:03:26;28.75;;;14.60;;
21356;SDS011;10836;53.068;18.234;2023-03-01T09:05:53;28.35;;;15.07;;
21356;SDS011;10836;53.068;18.234;2023-03-01T09:08:27;29.35;;;14.93;;
21356;SDS011;10836;53.068;18.234;2023-03-01T09:10:54;29.80;;;14.88;;
21356;SDS011;10836;53.068;18.234;2023-03-01T09:13:22;33.55;;;16.38;;
21356;SDS011;10836;53.068;18.234;2023-03-01T09:15:52;32.10;;;15.55;;
21356;SDS011;10836;53.068;18.234;2023-03-01T09:18:19;29.65;;;14.68;;
21356;SDS011;10836;53.068;18.234;2023-03-01T09:20:46;31.85;;;15.25;;
21356;SDS011;10836;53.068;18.234;2023-03-01T09:23:13;31.33;;;15.10;;
21356;SDS011;10836;53.068;18.234;2023-03-01T09:25:39;29.45;;;15.13;;
21356;SDS011;10836;53.068;18.234;2023-03-01T09:28:06;27.67;;;14.30;;
21356;SDS011;10836;53.068;18.234;2023-03-01T09:30:39;30.67;;;14.95;;
21356;SDS011;10836;53.068;18.234;2023-03-01T09:33:06;30.35;;;15.52;;
21356;SDS011;10836;53.068;18.234;2023-03-01T09:35:33;31.20;;;14.70;;
21356;SDS011;10836;53.068;18.234;2023-03-01T09:38:00;29.52;;;15.07;;
21356;SDS011;10836;53.068;18.234;2023-03-01T09:40:27;28.42;;;14.65;;
21356;SDS011;10836;53.068;18.234;2023-03-01T09:45:35;31.55;;;15.57;;
21356;SDS011;10836;53.068;18.234;2023-03-01T09:48:11;31.42;;;15.75;;
21356;SDS011;10836;53.068;18.234;2023-03-01T09:50:42;33.25;;;16.42;;
21356;SDS011;10836;53.068;18.234;2023-03-01T09:53:13;28.90;;;15.88;;
21356;SDS011;10836;53.068;18.234;2023-03-01T09:55:43;33.40;;;16.60;;
21356;SDS011;10836;53.068;18.234;2023-03-01T09:58:33;38.00;;;15.65;;
21356;SDS011;10836;53.068;18.234;2023-03-01T10:01:10;37.65;;;15.50;;
21356;SDS011;10836;53.068;18.234;2023-03-01T10:06:25;30.88;;;15.65;;
21356;SDS011;10836;53.068;18.234;2023-03-01T10:09:09;36.33;;;17.23;;
21356;SDS011;10836;53.068;18.234;2023-03-01T10:11:47;27.98;;;15.30;;
21356;SDS011;10836;53.068;18.234;2023-03-01T10:17:07;30.58;;;15.63;;
21356;SDS011;10836;53.068;18.234;2023-03-01T10:19:47;25.05;;;13.35;;
21356;SDS011;10836;53.068;18.234;2023-03-01T10:22:19;28.75;;;13.82;;
21356;SDS011;10836;53.068;18.234;2023-03-01T10:24:48;28.60;;;14.02;;
21356;SDS011;10836;53.068;18.234;2023-03-01T10:30:30;28.67;;;13.85;;
21356;SDS011;10836;53.068;18.234;2023-03-01T10:33:02;29.67;;;14.15;;
21356;SDS011;10836;53.068;18.234;2023-03-01T10:35:32;29.35;;;13.15;;
21356;SDS011;10836;53.068;18.234;2023-03-01T10:38:04;24.88;;;13.02;;
21356;SDS011;10836;53.068;18.234;2023-03-01T10:40:34;21.52;;;11.38;;
21356;SDS011;10836;53.068;18.234;2023-03-01T10:43:15;24.52;;;11.70;;
21356;SDS011;10836;53.068;18.234;2023-03-01T10:45:43;26.40;;;11.68;;
21356;SDS011;10836;53.068;18.234;2023-03-01T10:50:46;23.25;;;11.25;;
21356;SDS011;10836;53.068;18.234;2023-03-01T10:53:37;25.77;;;12.40;;
21356;SDS011;10836;53.068;18.234;2023-03-01T10:56:06;23.67;;;11.27;;
21356;SDS011;10836;53.068;18.234;2023-03-01T10:58:34;25.00;;;10.48;;
21356;SDS011;10836;53.068;18.234;2023-03-01T11:03:39;23.05;;;11.88;;
21356;SDS011;10836;53.068;18.234;2023-03-01T11:08:43;19.17;;;11.18;;
21356;SDS011;10836;53.068;18.234;2023-03-01T11:14:14;21.95;;;9.95;;
21356;SDS011;10836;53.068;18.234;2023-03-01T11:17:11;19.75;;;9.57;;
21356;SDS011;10836;53.068;18.234;2023-03-01T11:19:41;20.23;;;9.93;;
21356;SDS011;10836;53.068;18.234;2023-03-01T11:22:18;19.70;;;9.95;;
21356;SDS011;10836;53.068;18.234;2023-03-01T11:24:51;16.88;;;8.77;;
21356;SDS011;10836;53.068;18.234;2023-03-01T11:27:36;17.48;;;8.43;;
21356;SDS011;10836;53.068;18.234;2023-03-01T11:30:13;20.98;;;9.00;;
21356;SDS011;10836;53.068;18.234;2023-03-01T11:32:48;18.30;;;8.43;;
21356;SDS011;10836;53.068;18.234;2023-03-01T11:35:24;17.75;;;9.27;;
21356;SDS011;10836;53.068;18.234;2023-03-01T11:37:59;18.17;;;9.65;;
21356;SDS011;10836;53.068;18.234;2023-03-01T11:40:44;19.30;;;9.07;;
21356;SDS011;10836;53.068;18.234;2023-03-01T11:47:13;18.92;;;8.77;;
21356;SDS011;10836;53.068;18.234;2023-03-01T11:55:30;16.92;;;8.45;;
21356;SDS011;10836;53.068;18.234;2023-03-01T11:58:14;16.52;;;7.80;;
21356;SDS011;10836;53.068;18.234;2023-03-01T12:06:25;16.70;;;7.93;;
21356;SDS011;10836;53.068;18.234;2023-03-01T12:08:59;13.98;;;6.68;;
21356;SDS011;10836;53.068;18.234;2023-03-01T12:11:52;13.85;;;6.63;;
21356;SDS011;10836;53.068;18.234;2023-03-01T12:23:02;21.17;;;7.88;;
21356;SDS011;10836;53.068;18.234;2023-03-01T12:25:53;18.42;;;8.13;;
21356;SDS011;10836;53.068;18.234;2023-03-01T12:28:44;18.73;;;8.85;;
21356;SDS011;10836;53.068;18.234;2023-03-01T12:34:30;22.48;;;9.70;;
21356;SDS011;10836;53.068;18.234;2023-03-01T12:37:06;23.92;;;9.63;;
21356;SDS011;10836;53.068;18.234;2023-03-01T12:48:36;21.52;;;9.27;;
21356;SDS011;10836;53.068;18.234;2023-03-01T12:51:19;17.55;;;8.60;;
21356;SDS011;10836;53.068;18.234;2023-03-01T12:53:51;19.63;;;9.13;;
21356;SDS011;10836;53.068;18.234;2023-03-01T12:56:23;19.02;;;9.27;;
21356;SDS011;10836;53.068;18.234;2023-03-01T12:58:56;18.35;;;8.82;;
21356;SDS011;10836;53.068;18.234;2023-03-01T13:15:28;15.15;;;8.00;;
21356;SDS011;10836;53.068;18.234;2023-03-01T13:17:58;16.05;;;8.05;;
21356;SDS011;10836;53.068;18.234;2023-03-01T13:33:43;19.90;;;10.18;;
21356;SDS011;10836;53.068;18.234;2023-03-01T13:38:58;18.33;;;9.27;;
21356;SDS011;10836;53.068;18.234;2023-03-01T13:46:48;18.27;;;9.43;;
21356;SDS011;10836;53.068;18.234;2023-03-01T13:49:18;18.50;;;9.45;;
21356;SDS011;10836;53.068;18.234;2023-03-01T13:51:48;21.65;;;11.10;;
21356;SDS011;10836;53.068;18.234;2023-03-01T13:54:18;22.17;;;10.00;;
21356;SDS011;10836;53.068;18.234;2023-03-01T13:56:55;18.00;;;9.43;;
21356;SDS011;10836;53.068;18.234;2023-03-01T13:59:27;17.42;;;9.43;;
21356;SDS011;10836;53.068;18.234;2023-03-01T14:01:57;21.23;;;9.43;;
21356;SDS011;10836;53.068;18.234;2023-03-01T14:04:27;19.45;;;10.48;;
21356;SDS011;10836;53.068;18.234;2023-03-01T14:09:44;22.23;;;10.98;;
21356;SDS011;10836;53.068;18.234;2023-03-01T14:18:27;18.70;;;9.90;;
21356;SDS011;10836;53.068;18.234;2023-03-01T14:21:06;21.23;;;9.40;;
21356;SDS011;10836;53.068;18.234;2023-03-01T14:23:34;19.27;;;9.15;;
21356;SDS011;10836;53.068;18.234;2023-03-01T14:26:05;18.08;;;9.05;;
21356;SDS011;10836;53.068;18.234;2023-03-01T14:28:34;18.65;;;8.90;;
21356;SDS011;10836;53.068;18.234;2023-03-01T14:34:18;20.50;;;10.07;;
21356;SDS011;10836;53.068;18.234;2023-03-01T14:36:47;20.52;;;9.55;;
21356;SDS011;10836;53.068;18.234;2023-03-01T14:39:18;22.40;;;10.02;;
21356;SDS011;10836;53.068;18.234;2023-03-01T14:41:47;20.25;;;10.63;;
21356;SDS011;10836;53.068;18.234;2023-03-01T14:44:16;17.38;;;9.80;;
21356;SDS011;10836;53.068;18.234;2023-03-01T14:46:51;21.25;;;10.02;;
21356;SDS011;10836;53.068;18.234;2023-03-01T14:49:22;19.45;;;9.00;;
21356;SDS011;10836;53.068;18.234;2023-03-01T14:54:39;17.35;;;9.02;;
21356;SDS011;10836;53.068;18.234;2023-03-01T14:57:12;21.73;;;10.05;;
21356;SDS011;10836;53.068;18.234;2023-03-01T14:59:52;22.05;;;10.13;;
21356;SDS011;10836;53.068;18.234;2023-03-01T15:02:22;23.17;;;11.00;;
21356;SDS011;10836;53.068;18.234;2023-03-01T15:04:51;22.98;;;10.52;;
21356;SDS011;10836;53.068;18.234;2023-03-01T15:07:29;29.90;;;13.00;;
21356;SDS011;10836;53.068;18.234;2023-03-01T15:09:59;31.02;;;14.70;;
21356;SDS011;10836;53.068;18.234;2023-03-01T15:14:54;27.13;;;12.00;;
21356;SDS011;10836;53.068;18.234;2023-03-01T15:17:34;29.47;;;12.47;;
21356;SDS011;10836;53.068;18.234;2023-03-01T15:20:13;31.33;;;14.20;;
21356;SDS011;10836;53.068;18.234;2023-03-01T15:22:44;37.20;;;16.47;;
21356;SDS011;10836;53.068;18.234;2023-03-01T15:25:16;34.00;;;15.17;;
21356;SDS011;10836;53.068;18.234;2023-03-01T15:27:48;38.93;;;16.97;;
21356;SDS011;10836;53.068;18.234;2023-03-01T15:30:18;34.13;;;15.43;;
21356;SDS011;10836;53.068;18.234;2023-03-01T15:32:48;36.57;;;14.90;;
21356;SDS011;10836;53.068;18.234;2023-03-01T15:35:56;35.53;;;15.90;;
21356;SDS011;10836;53.068;18.234;2023-03-01T15:38:29;30.73;;;13.20;;
21356;SDS011;10836;53.068;18.234;2023-03-01T15:40:59;30.00;;;13.60;;
21356;SDS011;10836;53.068;18.234;2023-03-01T15:46:04;31.63;;;13.73;;
21356;SDS011;10836;53.068;18.234;2023-03-01T15:48:31;27.53;;;12.50;;
21356;SDS011;10836;53.068;18.234;2023-03-01T15:50:58;32.87;;;14.53;;
21356;SDS011;10836;53.068;18.234;2023-03-01T15:53:26;38.27;;;16.93;;
21356;SDS011;10836;53.068;18.234;2023-03-01T15:55:54;33.83;;;16.33;;
21356;SDS011;10836;53.068;18.234;2023-03-01T15:58:22;37.00;;;17.93;;
21356;SDS011;10836;53.068;18.234;2023-03-01T16:00:50;38.87;;;17.80;;
21356;SDS011;10836;53.068;18.234;2023-03-01T16:03:28;34.57;;;17.07;;
21356;SDS011;10836;53.068;18.234;2023-03-01T16:05:56;34.43;;;16.43;;
21356;SDS011;10836;53.068;18.234;2023-03-01T16:08:23;40.17;;;18.43;;
21356;SDS011;10836;53.068;18.234;2023-03-01T16:10:50;37.90;;;18.80;;
21356;SDS011;10836;53.068;18.234;2023-03-01T16:13:18;44.37;;;19.40;;
21356;SDS011;10836;53.068;18.234;2023-03-01T16:15:45;46.87;;;20.17;;
21356;SDS011;10836;53.068;18.234;2023-03-01T16:18:13;37.87;;;18.37;;
21356;SDS011;10836;53.068;18.234;2023-03-01T16:20:40;42.37;;;18.80;;
21356;SDS011;10836;53.068;18.234;2023-03-01T16:23:07;38.63;;;18.57;;
21356;SDS011;10836;53.068;18.234;2023-03-01T16:25:36;32.53;;;14.63;;
21356;SDS011;10836;53.068;18.234;2023-03-01T16:28:04;34.60;;;15.77;;
21356;SDS011;10836;53.068;18.234;2023-03-01T16:30:36;30.70;;;13.37;;
21356;SDS011;10836;53.068;18.234;2023-03-01T16:33:05;32.17;;;13.43;;
21356;SDS011;10836;53.068;18.234;2023-03-01T16:35:52;26.43;;;12.87;;